createdAt,value
2019-06-01T00:00:52.234Z,85.38
2019-06-01T00:03:24.010Z,85.48
2019-06-01T00:05:55.685Z,85.67
2019-06-01T00:08:27.577Z,86.26
2019-06-01T00:10:59.444Z,86.60
2019-06-01T00:13:31.222Z,87.25
2019-06-01T00:16:02.893Z,87.54
2019-06-01T00:18:34.817Z,87.89
2019-06-01T00:21:06.659Z,88.56
2019-06-01T00:23:38.429Z,88.72
2019-06-01T00:26:10.103Z,88.25
2019-06-01T00:28:41.983Z,87.17
2019-06-01T00:31:13.760Z,85.94
2019-06-01T00:33:45.537Z,83.47
2019-06-01T00:36:18.243Z,80.76
2019-06-01T00:38:50.045Z,79.68
2019-06-01T00:41:22.294Z,78.67
2019-06-01T00:43:54.072Z,78.55
2019-06-01T00:46:25.625Z,78.33
2019-06-01T00:48:57.427Z,79.48
2019-06-01T00:51:29.207Z,79.91
2019-06-01T00:54:00.961Z,80.79
2019-06-01T00:56:32.855Z,81.18
2019-06-01T00:59:04.613Z,81.86
2019-06-01T01:01:36.100Z,81.94
2019-06-01T01:04:07.962Z,81.09
2019-06-01T01:06:39.759Z,80.77
2019-06-01T01:09:11.739Z,82.58
2019-06-01T01:11:44.821Z,84.00
2019-06-01T01:14:16.517Z,83.31
2019-06-01T01:16:49.400Z,83.48
2019-06-01T01:19:21.094Z,84.73
2019-06-01T01:21:54.052Z,84.47
2019-06-01T01:24:25.774Z,85.44
2019-06-01T01:26:57.446Z,87.09
2019-06-01T01:29:29.311Z,87.94
2019-06-01T01:32:01.203Z,88.01
2019-06-01T01:34:32.969Z,86.96
2019-06-01T01:37:04.957Z,86.89
2019-06-01T01:39:36.540Z,86.99
2019-06-01T01:42:08.722Z,86.87
2019-06-01T01:44:40.580Z,87.11
2019-06-01T01:47:14.372Z,86.58
2019-06-01T01:49:45.582Z,86.99
2019-06-01T01:52:17.565Z,87.42
2019-06-01T01:54:50.589Z,87.80
2019-06-01T01:57:22.246Z,88.09
2019-06-01T01:59:55.302Z,87.95
2019-06-01T02:02:27.135Z,87.11
2019-06-01T02:04:59.932Z,86.71
2019-06-01T02:07:31.479Z,86.25
2019-06-01T02:10:04.196Z,85.95
2019-06-01T02:12:35.664Z,85.80
2019-06-01T02:15:08.960Z,85.88
2019-06-01T02:17:40.859Z,86.10
2019-06-01T02:20:12.905Z,86.69
2019-06-01T02:22:44.409Z,87.88
2019-06-01T02:25:16.493Z,89.02
2019-06-01T02:27:47.969Z,89.18
2019-06-01T02:30:20.368Z,88.59
2019-06-01T02:32:51.925Z,87.34
2019-06-01T02:35:23.806Z,84.07
2019-06-01T02:37:56.524Z,82.50
2019-06-01T02:40:28.362Z,80.84
2019-06-01T02:43:01.339Z,77.95
2019-06-01T02:45:32.938Z,74.23
2019-06-01T02:48:06.325Z,72.87
2019-06-01T02:50:38.249Z,71.81
2019-06-01T02:53:10.128Z,71.11
2019-06-01T02:55:42.008Z,69.26
2019-06-01T02:58:13.762Z,68.15
2019-06-01T03:00:48.630Z,67.50
2019-06-01T03:03:20.504Z,67.87
2019-06-01T03:05:53.494Z,69.54
2019-06-01T03:08:25.270Z,70.33
2019-06-01T03:10:59.694Z,71.87
2019-06-01T03:13:33.866Z,72.97
2019-06-01T03:16:08.866Z,70.99
2019-06-01T03:18:43.128Z,70.99
2019-06-01T03:21:17.626Z,69.57
2019-06-01T03:23:50.809Z,67.11
2019-06-01T03:26:24.997Z,66.43
2019-06-01T03:29:00.111Z,65.13
2019-06-01T03:31:32.361Z,64.55
2019-06-01T03:34:06.478Z,64.72
2019-06-01T03:36:37.632Z,64.63
2019-06-01T03:39:10.419Z,63.67
2019-06-01T03:41:42.729Z,62.43
2019-06-01T03:44:14.176Z,65.01
2019-06-01T03:46:45.998Z,65.30
2019-06-01T03:49:17.728Z,66.26
2019-06-01T03:51:49.511Z,66.85
2019-06-01T03:54:21.300Z,66.26
2019-06-01T03:56:53.180Z,66.80
2019-06-01T03:59:24.956Z,66.95
2019-06-01T04:01:56.834Z,66.81
2019-06-01T04:04:28.601Z,65.82
2019-06-01T04:07:01.278Z,65.70
2019-06-01T04:09:32.780Z,65.56
2019-06-01T04:12:05.505Z,64.17
2019-06-01T04:14:37.030Z,64.88
2019-06-01T04:17:10.085Z,64.88
2019-06-01T04:19:41.927Z,64.59
2019-06-01T04:22:14.128Z,64.23
2019-06-01T04:24:45.467Z,63.87
2019-06-01T04:27:17.267Z,64.52
2019-06-01T04:29:49.034Z,64.52
2019-06-01T04:32:20.912Z,63.94
2019-06-01T04:34:52.714Z,63.82
2019-06-01T04:37:24.554Z,64.26
2019-06-01T04:39:57.268Z,64.26
2019-06-01T04:42:28.945Z,64.44
2019-06-01T04:45:00.701Z,63.15
2019-06-01T04:47:32.701Z,60.67
2019-06-01T04:50:07.034Z,60.63
2019-06-01T04:52:38.807Z,61.11
2019-06-01T04:55:11.186Z,60.63
2019-06-01T04:57:42.551Z,61.48
2019-06-01T05:00:27.886Z,59.68
2019-06-01T05:03:05.023Z,59.68
2019-06-01T05:05:28.127Z,58.73
2019-06-01T05:07:59.697Z,59.61
2019-06-01T05:10:31.473Z,58.23
2019-06-01T05:13:03.253Z,57.18
2019-06-01T05:15:35.026Z,56.74
2019-06-01T05:18:07.872Z,54.87
2019-06-01T05:20:39.602Z,55.64
2019-06-01T05:23:12.667Z,55.33
2019-06-01T05:25:44.163Z,56.52
2019-06-01T05:28:15.733Z,55.08
2019-06-01T05:30:47.514Z,53.68
2019-06-01T05:33:35.525Z,55.89
2019-06-01T05:35:52.717Z,52.83
2019-06-01T05:38:24.491Z,53.73
2019-06-01T05:40:56.456Z,52.93
2019-06-01T05:43:28.252Z,52.63
2019-06-01T05:45:59.618Z,51.21
2019-06-01T05:48:31.397Z,51.82
2019-06-01T05:51:03.157Z,50.60
2019-06-01T05:53:34.948Z,51.47
2019-06-01T05:56:06.723Z,50.70
2019-06-01T05:58:38.501Z,50.20
2019-06-01T06:01:10.404Z,50.31
2019-06-01T06:03:42.156Z,49.24
2019-06-01T06:06:13.935Z,49.37
2019-06-01T06:08:45.708Z,50.53
2019-06-01T06:11:17.487Z,51.85
2019-06-01T06:13:49.349Z,49.31
2019-06-01T06:16:22.490Z,48.85
2019-06-01T06:18:54.059Z,49.49
2019-06-01T06:21:25.491Z,48.01
2019-06-01T06:23:56.884Z,48.58
2019-06-01T06:26:28.273Z,45.12
2019-06-01T06:28:59.706Z,44.41
2019-06-01T06:31:31.061Z,46.34
2019-06-01T06:34:02.486Z,47.02
2019-06-01T06:36:33.834Z,41.60
2019-06-01T06:39:07.591Z,41.82
2019-06-01T06:41:39.877Z,44.46
2019-06-01T06:44:11.134Z,45.78
2019-06-01T06:46:42.459Z,44.33
2019-06-01T06:49:15.003Z,42.84
2019-06-01T06:51:46.462Z,44.24
2019-06-01T06:54:17.882Z,43.37
2019-06-01T06:56:49.089Z,43.20
2019-06-01T06:59:20.774Z,42.93
2019-06-01T07:01:52.107Z,42.28
2019-06-01T07:04:23.366Z,41.41
2019-06-01T07:06:54.750Z,43.65
2019-06-01T07:09:26.200Z,42.50
2019-06-01T07:11:57.685Z,47.84
2019-06-01T07:14:29.460Z,47.40
2019-06-01T07:17:01.226Z,42.27
2019-06-01T07:19:32.885Z,43.40
2019-06-01T07:22:04.578Z,43.26
2019-06-01T07:24:36.335Z,43.18
2019-06-01T07:27:08.015Z,43.23
2019-06-01T07:29:39.435Z,46.45
2019-06-01T07:32:11.682Z,44.63
2019-06-01T07:34:43.242Z,43.92
2019-06-01T07:37:15.036Z,44.11
2019-06-01T07:39:46.704Z,43.41
2019-06-01T07:42:23.011Z,43.85
2019-06-01T07:44:52.388Z,43.95
2019-06-01T07:47:24.997Z,40.81
2019-06-01T07:49:56.708Z,42.37
2019-06-01T07:52:28.556Z,40.92
2019-06-01T07:55:00.132Z,40.74
2019-06-01T07:57:31.846Z,39.88
2019-06-01T08:00:05.211Z,42.27
2019-06-01T08:02:36.887Z,43.39
2019-06-01T08:05:09.157Z,44.25
2019-06-01T08:07:40.645Z,42.22
2019-06-01T08:10:12.712Z,40.16
2019-06-01T08:12:44.139Z,41.50
2019-06-01T08:15:15.872Z,40.44
2019-06-01T08:17:47.650Z,40.74
2019-06-01T08:20:19.427Z,39.17
2019-06-01T08:22:51.197Z,39.88
2019-06-01T08:25:24.208Z,40.06
2019-06-01T08:27:55.873Z,39.62
2019-06-01T08:30:28.641Z,39.17
2019-06-01T08:33:00.152Z,39.32
2019-06-01T08:35:32.999Z,40.50
2019-06-01T08:38:04.522Z,38.24
2019-06-01T08:40:36.298Z,38.61
2019-06-01T08:43:08.877Z,38.17
2019-06-01T08:45:40.262Z,37.40
2019-06-01T08:48:11.930Z,40.49
2019-06-01T08:50:46.119Z,37.18
2019-06-01T08:53:16.917Z,36.56
2019-06-01T08:55:48.677Z,34.65
2019-06-01T08:58:20.474Z,35.73
2019-06-01T09:00:52.230Z,36.50
2019-06-01T09:03:25.726Z,34.50
2019-06-01T09:05:57.218Z,33.36
2019-06-01T09:08:28.996Z,34.86
2019-06-01T09:11:00.805Z,34.28
2019-06-01T09:13:33.299Z,35.15
2019-06-01T09:16:05.879Z,33.31
2019-06-01T09:18:37.754Z,32.42
2019-06-01T09:21:09.963Z,33.92
2019-06-01T09:23:41.698Z,34.45
2019-06-01T09:26:13.495Z,33.26
2019-06-01T09:28:45.151Z,35.34
2019-06-01T09:31:16.924Z,35.53
2019-06-01T09:33:48.724Z,34.78
2019-06-01T09:36:22.831Z,34.60
2019-06-01T09:38:54.522Z,33.76
2019-06-01T09:41:26.461Z,34.11
2019-06-01T09:43:59.330Z,34.63
2019-06-01T09:46:32.115Z,33.93
2019-06-01T09:49:04.476Z,34.07
2019-06-01T09:51:37.627Z,35.91
2019-06-01T09:54:09.464Z,33.51
2019-06-01T09:56:41.154Z,33.73
2019-06-01T09:59:12.935Z,35.55
2019-06-01T10:01:44.609Z,32.88
2019-06-01T10:04:16.361Z,31.84
2019-06-01T10:06:48.142Z,35.11
2019-06-01T10:09:19.919Z,34.98
2019-06-01T10:11:51.795Z,33.68
2019-06-01T10:14:23.486Z,32.91
2019-06-01T10:16:55.262Z,31.47
2019-06-01T10:19:43.123Z,29.97
2019-06-01T10:22:31.003Z,32.59
2019-06-01T10:25:02.913Z,31.00
2019-06-01T10:27:34.778Z,30.86
2019-06-01T10:30:08.801Z,30.75
2019-06-01T10:32:40.287Z,30.81
2019-06-01T10:35:12.365Z,29.70
2019-06-01T10:37:43.943Z,28.97
2019-06-01T10:40:16.782Z,31.56
2019-06-01T10:42:48.312Z,30.57
2019-06-01T10:45:19.971Z,31.16
2019-06-01T10:47:51.871Z,30.22
2019-06-01T10:50:23.434Z,31.38
2019-06-01T10:52:54.895Z,32.39
2019-06-01T10:55:26.808Z,32.22
2019-06-01T10:57:58.752Z,28.86
2019-06-01T11:00:39.668Z,28.34
2019-06-01T11:03:03.737Z,30.66
2019-06-01T11:05:36.630Z,31.21
2019-06-01T11:08:08.519Z,28.77
2019-06-01T11:10:40.988Z,27.33
2019-06-01T11:13:12.481Z,28.03
2019-06-01T11:15:44.670Z,29.51
2019-06-01T11:18:16.544Z,28.00
2019-06-01T11:20:48.441Z,28.33
2019-06-01T11:23:20.332Z,28.12
2019-06-01T11:25:52.097Z,28.02
2019-06-01T11:28:23.877Z,28.07
2019-06-01T11:30:55.634Z,27.61
2019-06-01T11:33:27.427Z,27.93
2019-06-01T11:35:59.204Z,24.38
2019-06-01T11:38:31.083Z,24.00
2019-06-01T11:41:02.841Z,23.71
2019-06-01T11:43:34.721Z,24.02
2019-06-01T11:46:06.608Z,23.69
2019-06-01T11:48:39.210Z,25.36
2019-06-01T11:51:10.786Z,24.18
2019-06-01T11:53:43.475Z,24.53
2019-06-01T11:56:15.038Z,24.14
2019-06-01T11:58:46.942Z,23.66
2019-06-01T12:01:18.690Z,25.61
2019-06-01T12:03:50.588Z,23.29
2019-06-01T12:06:22.453Z,24.43
2019-06-01T12:08:54.122Z,22.66
2019-06-01T12:11:25.922Z,24.42
2019-06-01T12:13:57.684Z,24.37
2019-06-01T12:16:29.473Z,27.43
2019-06-01T12:19:01.657Z,28.81
2019-06-01T12:21:33.435Z,27.10
2019-06-01T12:24:05.640Z,28.56
2019-06-01T12:26:37.395Z,29.86
2019-06-01T12:29:09.258Z,25.71
2019-06-01T12:31:41.698Z,26.82
2019-06-01T12:34:13.648Z,28.04
2019-06-01T12:36:46.398Z,25.25
2019-06-01T12:39:18.229Z,25.92
2019-06-01T12:41:49.897Z,25.06
2019-06-01T12:44:21.676Z,26.18
2019-06-01T12:46:53.451Z,24.66
2019-06-01T12:49:25.317Z,26.13
2019-06-01T12:51:57.093Z,28.12
2019-06-01T12:54:28.987Z,27.05
2019-06-01T12:57:00.864Z,25.90
2019-06-01T12:59:32.741Z,25.28
2019-06-01T13:02:04.606Z,24.14
2019-06-01T13:04:36.486Z,24.06
2019-06-01T13:07:08.161Z,25.69
2019-06-01T13:09:39.951Z,24.06
2019-06-01T13:12:11.629Z,23.21
2019-06-01T13:14:43.408Z,23.72
2019-06-01T13:17:15.280Z,24.37
2019-06-01T13:19:47.441Z,24.27
2019-06-01T13:22:19.348Z,23.51
2019-06-01T13:24:52.027Z,25.35
2019-06-01T13:27:23.818Z,25.06
2019-06-01T13:29:55.596Z,26.33
2019-06-01T13:32:27.372Z,26.93
2019-06-01T13:34:59.235Z,25.25
2019-06-01T13:37:31.136Z,25.82
2019-06-01T13:40:05.462Z,26.42
2019-06-01T13:42:36.934Z,27.62
2019-06-01T13:45:08.834Z,26.79
2019-06-01T13:47:41.410Z,25.93
2019-06-01T13:50:13.072Z,27.71
2019-06-01T13:52:45.846Z,29.46
2019-06-01T13:55:17.556Z,28.76
2019-06-01T13:57:50.454Z,28.86
2019-06-01T14:00:30.220Z,28.24
2019-06-01T14:02:57.634Z,27.30
2019-06-01T14:05:29.063Z,27.42
2019-06-01T14:08:00.938Z,29.02
2019-06-01T14:10:32.823Z,25.22
2019-06-01T14:13:05.533Z,27.14
2019-06-01T14:15:37.418Z,28.20
2019-06-01T14:18:09.075Z,29.49
2019-06-01T14:20:40.849Z,29.14
2019-06-01T14:23:12.520Z,29.41
2019-06-01T14:25:44.295Z,29.86
2019-06-01T14:28:16.072Z,31.19
2019-06-01T14:30:48.477Z,31.85
2019-06-01T14:33:20.239Z,31.39
2019-06-01T14:35:52.841Z,31.01
2019-06-01T14:38:24.507Z,28.35
2019-06-01T14:40:57.320Z,30.19
2019-06-01T14:43:28.881Z,30.07
2019-06-01T14:46:00.741Z,31.98
2019-06-01T14:48:32.623Z,30.82
2019-06-01T14:51:04.728Z,31.17
2019-06-01T14:53:36.379Z,30.86
2019-06-01T14:56:08.081Z,29.97
2019-06-01T14:58:39.845Z,29.07
2019-06-01T15:01:11.625Z,28.66
2019-06-01T15:03:43.404Z,27.59
2019-06-01T15:06:15.261Z,27.07
2019-06-01T15:09:07.618Z,27.75
2019-06-01T15:11:20.350Z,30.23
2019-06-01T15:13:52.328Z,31.70
2019-06-01T15:16:24.126Z,32.50
2019-06-01T15:18:56.171Z,32.98
2019-06-01T15:21:27.985Z,32.82
2019-06-01T15:23:59.745Z,33.12
2019-06-01T15:26:31.519Z,32.53
2019-06-01T15:29:03.326Z,32.15
2019-06-01T15:31:35.181Z,34.63
2019-06-01T15:34:07.073Z,34.00
2019-06-01T15:36:38.951Z,34.31
2019-06-01T15:39:24.336Z,34.43
2019-06-01T15:41:44.246Z,33.79
2019-06-01T15:44:15.919Z,33.45
2019-06-01T15:46:47.710Z,33.22
2019-06-01T15:49:20.703Z,33.07
2019-06-01T15:51:53.656Z,31.57
2019-06-01T15:54:26.810Z,32.58
2019-06-01T15:56:58.670Z,33.58
2019-06-01T15:59:30.466Z,34.92
2019-06-01T16:02:03.461Z,34.49
2019-06-01T16:04:34.941Z,36.23
2019-06-01T16:07:06.596Z,36.49
2019-06-01T16:09:42.656Z,37.28
2019-06-01T16:12:11.597Z,37.99
2019-06-01T16:14:43.375Z,39.19
2019-06-01T16:17:15.255Z,40.58
2019-06-01T16:19:47.134Z,42.63
2019-06-01T16:22:19.015Z,44.54
2019-06-01T16:24:50.892Z,45.77
2019-06-01T16:27:22.547Z,47.93
2019-06-01T16:29:54.647Z,47.46
2019-06-01T16:32:26.427Z,49.71
2019-06-01T16:34:58.750Z,50.32
2019-06-01T16:37:30.507Z,50.78
2019-06-01T16:40:05.927Z,50.07
2019-06-01T16:42:35.260Z,50.89
2019-06-01T16:45:10.056Z,51.84
2019-06-01T16:47:41.491Z,51.54
2019-06-01T16:50:14.514Z,52.35
2019-06-01T16:52:45.843Z,52.36
2019-06-01T16:55:17.632Z,53.34
2019-06-01T16:57:49.521Z,53.95
2019-06-01T17:00:24.137Z,55.28
2019-06-01T17:02:56.985Z,55.21
2019-06-01T17:05:28.913Z,55.77
2019-06-01T17:08:00.800Z,55.61
2019-06-01T17:10:32.980Z,55.67
2019-06-01T17:13:06.808Z,54.83
2019-06-01T17:15:37.984Z,54.17
2019-06-01T17:18:10.589Z,54.30
2019-06-01T17:20:44.791Z,53.51
2019-06-01T17:23:27.492Z,53.16
2019-06-01T17:25:49.996Z,52.37
2019-06-01T17:28:21.781Z,51.87
2019-06-01T17:30:53.551Z,51.77
2019-06-01T17:33:25.326Z,51.46
2019-06-01T17:35:58.551Z,52.14
2019-06-01T17:38:30.193Z,52.74
2019-06-01T17:41:02.257Z,51.92
2019-06-01T17:43:33.967Z,52.64
2019-06-01T17:46:05.744Z,51.68
2019-06-01T17:48:37.727Z,52.80
2019-06-01T17:51:10.220Z,53.17
2019-06-01T19:18:52.212Z,57.34
2019-06-01T19:21:23.986Z,58.00
2019-06-01T19:23:55.886Z,58.52
2019-06-01T19:26:27.765Z,57.76
2019-06-01T19:28:59.725Z,56.77
2019-06-01T19:31:31.620Z,57.41
2019-06-01T19:34:05.138Z,57.57
2019-06-01T19:36:38.640Z,56.39
2019-06-01T19:39:11.115Z,57.26
2019-06-01T19:41:45.138Z,57.33
2019-06-01T19:44:15.951Z,57.68
2019-06-01T19:46:47.811Z,58.08
2019-06-01T19:49:19.669Z,57.97
2019-06-01T19:51:51.564Z,58.54
2019-06-01T19:54:24.565Z,59.02
2019-06-01T19:56:56.343Z,58.83
2019-06-01T19:59:28.121Z,58.85
2019-06-01T20:01:59.981Z,58.85
2019-06-01T20:04:31.879Z,59.61
2019-06-01T20:07:03.769Z,60.70
2019-06-01T20:09:35.637Z,60.68
2019-06-01T20:12:12.082Z,55.31
2019-06-01T20:14:40.517Z,55.49
2019-06-01T20:17:13.314Z,55.82
2019-06-01T20:19:45.203Z,56.86
2019-06-01T20:22:17.089Z,56.71
2019-06-01T20:24:48.859Z,57.26
2019-06-01T20:27:21.655Z,56.93
2019-06-01T20:29:53.329Z,57.31
2019-06-01T20:32:25.212Z,57.58
2019-06-01T20:34:56.981Z,58.34
2019-06-01T20:37:29.668Z,58.48
2019-06-01T20:40:01.457Z,59.00
2019-06-01T20:42:33.334Z,60.02
2019-06-01T20:45:08.159Z,61.05
2019-06-01T20:47:39.532Z,62.60
2019-06-01T20:50:12.600Z,64.89
2019-06-01T20:52:44.126Z,66.42
2019-06-01T20:55:17.574Z,67.07
2019-06-01T20:57:49.009Z,68.30
2019-06-01T21:00:21.771Z,68.86
2019-06-01T21:02:53.702Z,69.77
2019-06-01T21:05:25.440Z,70.69
2019-06-01T21:07:57.853Z,71.61
2019-06-01T21:10:29.815Z,72.18
2019-06-01T21:13:01.710Z,73.67
2019-06-01T21:15:33.577Z,73.99
2019-06-01T21:18:05.555Z,74.59
2019-06-01T21:20:37.447Z,75.32
2019-06-01T21:23:09.327Z,75.91
2019-06-01T21:25:41.207Z,76.15
2019-06-01T21:28:15.804Z,76.43
2019-06-01T21:30:46.093Z,76.58
2019-06-01T21:33:19.459Z,77.25
2019-06-01T21:35:51.586Z,77.51
2019-06-01T21:38:23.725Z,77.56
2019-06-01T21:40:55.532Z,77.38
2019-06-01T21:43:34.868Z,77.63
2019-06-01T21:46:00.626Z,77.87
2019-06-01T21:48:32.516Z,77.75
2019-06-01T21:51:04.223Z,77.99
2019-06-01T21:53:36.068Z,78.32
2019-06-01T21:56:07.844Z,77.42
2019-06-01T21:58:39.706Z,77.40
2019-06-01T22:01:11.383Z,77.36
2019-06-01T22:03:43.260Z,75.68
2019-06-01T22:06:14.932Z,74.83
2019-06-01T22:08:52.520Z,74.86
2019-06-01T22:11:19.818Z,74.87
2019-06-01T22:13:51.713Z,74.19
2019-06-01T22:16:23.749Z,74.21
2019-06-01T22:18:55.675Z,73.85
2019-06-01T22:21:27.950Z,74.10
2019-06-01T22:23:59.514Z,74.44
2019-06-01T22:26:31.219Z,74.47
2019-06-01T22:29:03.094Z,74.73
2019-06-01T22:31:34.865Z,74.52
2019-06-01T22:34:06.522Z,74.49
2019-06-01T22:36:38.400Z,74.65
2019-06-01T22:39:10.280Z,74.71
2019-06-01T22:41:42.175Z,74.97
2019-06-01T22:44:14.036Z,75.51
2019-06-01T22:46:45.737Z,75.61
2019-06-01T22:49:17.488Z,75.94
2019-06-01T22:51:49.281Z,76.09
2019-06-01T22:54:21.161Z,76.58
2019-06-01T22:56:53.040Z,76.98
2019-06-01T22:59:24.922Z,77.30
2019-06-01T23:01:56.675Z,77.55
2019-06-01T23:04:29.311Z,77.75
2019-06-01T23:07:00.967Z,78.11
2019-06-01T23:09:32.844Z,78.39
2019-06-01T23:12:04.704Z,78.79
2019-06-01T23:14:36.602Z,78.98
2019-06-01T23:17:08.281Z,79.27
2019-06-01T23:19:40.055Z,79.20
2019-06-01T23:22:11.837Z,79.50
2019-06-01T23:24:43.712Z,79.61
2019-06-01T23:27:15.568Z,79.63
2019-06-01T23:29:47.452Z,79.52
2019-06-01T23:32:19.143Z,79.23
2019-06-01T23:34:50.920Z,79.30
2019-06-01T23:37:22.777Z,79.52
2019-06-01T23:39:54.674Z,79.78
2019-06-01T23:42:26.817Z,79.79
2019-06-01T23:44:58.739Z,80.00
2019-06-01T23:47:31.354Z,80.17
2019-06-01T23:50:03.333Z,80.18
2019-06-01T23:52:34.885Z,80.06
2019-06-01T23:55:07.992Z,79.85
2019-06-01T23:57:39.462Z,79.58
